Mac Dill Air Force Base
KMCF : now visible

Airfield :











YOU CAN JOIN US ON...

 
LOGIN :

Register | Disclaimer

   EN    FR    IT 

 









Legend :    VFR   Marginal VFR   IFR   Intensive IFR   Very Intensive IFR
Visi :
Ceiling :
>= 8 km
>= 3000ft
5 to 8 km
1000 to 3000 ft
1500m to 5 km
500 to 1000 ft
800 to 1500m
200 to 500 ft
< 800m
< 200 ft
Symbols :   Thunderstorms  Fog  Heavy snow  Heavy precipitations  Wind > 20 kt






- Airport Elevation : 14 ft


KMCF - Mac Dill Air Force Base

CURRENT METAR :
  • 072056Z AUTO 33008KT 10SM CLR 29/19 A2999 RMK AO2 SLP159 T02910188 57028 FZRANO $

EXPIRED METARs :
  • 071956Z AUTO 29004KT 10SM CLR 30/17 A3001 RMK AO2 SLP165 T02960171 FZRANO $
  • 071856Z AUTO 28006KT 10SM CLR 29/17 A3004 RMK AO2 SLP176 T02890174 FZRANO $

TAF TAF KMCF
Valid from the 07 at 17:00 until the 08 at 23:00 UTC


071700Z 0717/0823 VRB06KT 9999 FEW100 QNH2992INS
BECMG 0820/0821 27012KT 9999 FEW050 QNH2987INS TX31/0720Z TN20/0808Z LAST NO AMDS AFT 0722 NEXT 0911



MET'MAP, your aeronautical weather chart ! - Copyright ORBIFLY December 2007 - Disclaimer

ORBIFLY MET'MAP TEAM :

Programming & Development : Alexandra Zaïnal
Concept & original design : Baudouin d'Aumeries
Assistance for programming : Marc-Olivier Méhu
Technical & hardware support : Manuel Goepfert

Contact : metmap@orbifly.com




SOURCES & CREDITS :

   NOAA       Earth
Advisory